KBILKJDN

Guest
Details From KBIL - Billings Logan Intl
To KJDN - Jordan
Flight Number -
Tags generated
Created
Modified
Stats Distance 117 nm / 217 km
Max Altitude 7,800 ft / 2,377 m
Waypoints 3
Social Downloads 1
Likes 0
Share VATSIM

Download

Looking for another format? Having issues loading an existing format? Contact us
Advertisement - Login to hide

Notes

Basic altitude profile: - Ascent Rate: 2500ft/min - Ascent Speed: 250kts - Cruise Altitude: 35000ft - Cruise Speed: 420kts - Descent Rate: 1500ft/min - Descent Speed: 250kts Options: - Use NATs: yes - Use PACOTS: yes - Use low airways: yes - Use high airways: yes

Route

KBIL NIBBE KJDN

ID Type Via Altitude Latitude Longitude Leg Dist Tot Dist Heading (true) Name
O KBIL APT - 0 ft / 0 m 45.80771˚ -108.54641˚ - 0 nm - Billings Logan Intl
NIBBE FIX - 7,800 ft / 2,377 m 45.93664˚ -108.05722˚ 21 nm 21 nm 69° / 69° -
O KJDN APT - 0 ft / 0 m 47.32870˚ -106.95266˚ 95 nm 117 nm 28° / 29° Jordan

Altitude Profile

Advertisement - Login to hide

KBIL

Details ICAO KBIL (BIL)
Name Billings Logan Intl
Region United States
Timezone America/Denver (UTC-6.0)
Stats Elevation 3,652 ft / 1,113 m (AMSL)
Location 45.807706° -108.546410°
Runways 3
Magnetic Variation 10.641° E

METAR

KBIL 250453Z 22008KT 10SM FEW085 19/11 A2995 RMK AO2 SLP115 T01890106

Decode

TAF

KBIL 242330Z 2500/2524 24015KT P6SM VCSH SCT080 BKN120 FM250300 25012KT P6SM FEW080 SCT150 FM251500 23010KT P6SM FEW080 FEW150

Decode

Departure Runways

ID Width Length Bearing (true) Bearing (mag) Surface Threshold Offset Overrun Length
07 75 ft / 23 m 5,486 ft / 1,672 m 83.96° 73.32° Asphalt 0 ft / 0 m 0 ft / 0 m
10L 150 ft / 46 m 10,493 ft / 3,198 m 111.77° 101.13° Asphalt 0 ft / 0 m 1,000 ft / 305 m
10R 75 ft / 23 m 3,792 ft / 1,156 m 111.71° 101.07° Asphalt 0 ft / 0 m 0 ft / 0 m
25 75 ft / 23 m 5,486 ft / 1,672 m 263.97° 253.33° Asphalt 0 ft / 0 m 0 ft / 0 m
28L 75 ft / 23 m 3,792 ft / 1,156 m 291.72° 281.08° Asphalt 0 ft / 0 m 0 ft / 0 m
28R 150 ft / 46 m 10,493 ft / 3,198 m 291.80° 281.16° Asphalt 0 ft / 0 m 1,000 ft / 305 m

KJDN

Details ICAO KJDN
Name Jordan
Region United States
Timezone America/Denver (UTC-6.0)
Stats Elevation 2,662 ft / 811 m (AMSL)
Location 47.328701° -106.952658°
Runways 1
Magnetic Variation 9.966° E

METAR

KJDN 250448Z AUTO 31006KT 16/14 A2983 RMK AO1 SLP095 T01610139

Decode

TAF

Not found

Destination Runways

ID Width Length Bearing (true) Bearing (mag) Surface Threshold Offset Overrun Length
10 75 ft / 23 m 4,321 ft / 1,317 m 114.98° 105.01° Asphalt 0 ft / 0 m 0 ft / 0 m
28 75 ft / 23 m 4,321 ft / 1,317 m 295.00° 285.03° Asphalt 0 ft / 0 m 0 ft / 0 m